Crescent Valley, Nevada
Current Conditions -  °F | °C
As of 1:56 PM on Monday 24 Nov 2014 (Local Time) from KEKO Reporting Station
Clear Clear  
Wind Chill: 36°   Ceiling: Unl
Heat Index: 43°   Visibility: 10mi
Dew Point: 21°   Wind: 14mph
Humidity: 42%   Direction: 280°W
Pressure: 30.42"   Gusts: NA
Location:  40.42°N, 116.58°W
Report Text: KEKO 242156Z AUTO 28012KT 10SM CLR 06/M06 A3042 RMK AO2 SLP318 T00611061
Loading
Personal Weather Stations






























Interactive Weather Map New forecast layout! Learn more

10-Day Weather Forecast

Advertisements
Track Severe Weather on mobile